createdAt,value
2022-07-29T00:01:37.940Z,49.37
2022-07-29T00:04:24.420Z,50.08
2022-07-29T00:07:10.871Z,49.98
2022-07-29T00:09:59.406Z,49.88
2022-07-29T00:12:45.637Z,48.89
2022-07-29T00:15:33.445Z,49.88
2022-07-29T00:18:19.617Z,49.20
2022-07-29T00:21:06.002Z,48.11
2022-07-29T00:23:52.361Z,49.32
2022-07-29T00:26:38.578Z,51.07
2022-07-29T00:29:34.196Z,49.79
2022-07-29T00:32:21.283Z,49.20
2022-07-29T00:35:26.706Z,48.85
2022-07-29T00:38:15.081Z,48.89
2022-07-29T00:41:01.050Z,47.84
2022-07-29T00:43:47.427Z,48.44
2022-07-29T00:46:33.765Z,48.93
2022-07-29T00:49:20.221Z,48.53
2022-07-29T00:52:07.136Z,48.41
2022-07-29T00:54:53.627Z,47.87
2022-07-29T00:57:41.432Z,47.66
2022-07-29T01:00:29.287Z,47.67
2022-07-29T01:03:15.703Z,47.93
2022-07-29T01:06:02.347Z,47.19
2022-07-29T01:08:49.309Z,47.56
2022-07-29T01:11:37.108Z,46.75
2022-07-29T01:14:24.172Z,47.45
2022-07-29T01:17:26.705Z,47.04
2022-07-29T01:20:33.779Z,47.09
2022-07-29T01:23:29.467Z,48.10
2022-07-29T01:26:49.215Z,47.82
2022-07-29T01:29:42.890Z,48.17
2022-07-29T01:32:37.645Z,47.14
2022-07-29T01:35:27.020Z,46.64
2022-07-29T01:38:25.979Z,46.54
2022-07-29T01:41:16.548Z,46.86
2022-07-29T01:44:21.623Z,47.31
2022-07-29T01:47:13.907Z,46.34
2022-07-29T01:50:01.439Z,46.61
2022-07-29T01:53:00.434Z,48.06
2022-07-29T01:55:47.163Z,47.23
2022-07-29T01:58:33.637Z,47.18
2022-07-29T02:01:21.374Z,47.18
2022-07-29T02:04:10.811Z,47.09
2022-07-29T02:07:00.218Z,47.87
2022-07-29T02:09:48.450Z,47.50
2022-07-29T02:12:36.659Z,48.07
2022-07-29T02:15:25.114Z,48.69
2022-07-29T02:18:18.923Z,47.61
2022-07-29T02:21:06.149Z,47.61
2022-07-29T02:24:02.678Z,48.03
2022-07-29T02:26:50.818Z,47.66
2022-07-29T02:29:38.419Z,48.20
2022-07-29T02:32:25.800Z,48.39
2022-07-29T02:35:14.395Z,48.43
2022-07-29T02:38:19.489Z,48.71
2022-07-29T02:41:12.324Z,48.81
2022-07-29T02:44:03.939Z,49.12
2022-07-29T02:47:00.503Z,49.12
2022-07-29T02:49:54.464Z,48.89
2022-07-29T02:52:44.670Z,48.63
2022-07-29T02:55:58.087Z,48.54
2022-07-29T02:58:49.090Z,48.68
2022-07-29T03:01:36.150Z,48.07
2022-07-29T03:04:24.051Z,48.44
2022-07-29T03:07:12.260Z,48.75
2022-07-29T03:09:58.657Z,48.37
2022-07-29T03:12:45.421Z,48.32
2022-07-29T03:15:32.059Z,48.48
2022-07-29T03:18:18.663Z,48.33
2022-07-29T03:21:05.106Z,49.04
2022-07-29T03:23:52.055Z,48.73
2022-07-29T03:26:38.323Z,49.78
2022-07-29T03:29:25.238Z,49.07
2022-07-29T03:32:23.741Z,49.57
2022-07-29T03:35:11.905Z,48.89
2022-07-29T03:37:57.929Z,48.81
2022-07-29T03:40:49.961Z,49.14
2022-07-29T03:43:39.079Z,48.84
2022-07-29T03:46:37.037Z,49.08
2022-07-29T03:49:24.912Z,48.75
2022-07-29T03:52:11.907Z,48.93
2022-07-29T03:54:57.946Z,49.01
2022-07-29T03:57:45.871Z,49.26
2022-07-29T04:00:32.994Z,49.31
2022-07-29T04:03:19.250Z,49.51
2022-07-29T04:06:07.478Z,49.79
2022-07-29T04:08:54.207Z,50.01
2022-07-29T04:12:02.587Z,49.88
2022-07-29T04:14:48.222Z,49.45
2022-07-29T04:17:34.879Z,49.66
2022-07-29T04:20:21.655Z,50.13
2022-07-29T04:23:07.994Z,50.18
2022-07-29T04:25:54.871Z,50.01
2022-07-29T04:28:41.460Z,50.15
2022-07-29T04:31:28.725Z,49.78
2022-07-29T04:34:14.825Z,49.79
2022-07-29T04:37:01.730Z,50.22
2022-07-29T04:39:48.076Z,50.21
2022-07-29T04:42:34.308Z,49.85
2022-07-29T04:45:30.223Z,49.22
2022-07-29T04:48:16.657Z,49.54
2022-07-29T04:51:03.127Z,50.46
2022-07-29T04:53:49.312Z,49.11
2022-07-29T04:56:35.781Z,49.33
2022-07-29T04:59:22.143Z,49.71
2022-07-29T05:02:08.410Z,49.92
2022-07-29T05:04:54.732Z,49.81
2022-07-29T05:07:41.467Z,50.30
2022-07-29T05:10:28.171Z,50.89
2022-07-29T05:13:14.494Z,48.25
2022-07-29T05:16:00.894Z,48.33
2022-07-29T05:18:47.272Z,48.46
2022-07-29T05:21:33.669Z,48.21
2022-07-29T05:24:20.158Z,46.76
2022-07-29T05:27:06.598Z,48.29
2022-07-29T05:29:53.213Z,47.83
2022-07-29T05:32:39.373Z,47.11
2022-07-29T05:35:25.713Z,46.19
2022-07-29T05:38:12.179Z,45.90
2022-07-29T05:41:00.136Z,46.49
2022-07-29T05:43:46.467Z,46.11
2022-07-29T05:46:32.974Z,45.82
2022-07-29T05:49:27.126Z,45.03
2022-07-29T05:52:14.290Z,45.50
2022-07-29T05:55:03.775Z,45.22
2022-07-29T05:57:49.853Z,45.17
2022-07-29T06:00:36.381Z,44.69
2022-07-29T06:03:22.510Z,45.33
2022-07-29T06:06:08.662Z,45.34
2022-07-29T06:08:55.270Z,44.98
2022-07-29T06:11:41.748Z,45.65
2022-07-29T06:14:29.273Z,45.66
2022-07-29T06:17:17.366Z,45.58
2022-07-29T06:20:04.788Z,44.84
2022-07-29T06:22:50.987Z,44.44
2022-07-29T06:25:37.736Z,45.17
2022-07-29T06:28:24.084Z,44.47
2022-07-29T06:31:10.750Z,43.70
2022-07-29T06:33:57.106Z,44.75
2022-07-29T06:36:43.495Z,44.36
2022-07-29T06:39:29.731Z,43.66
2022-07-29T06:42:16.634Z,43.25
2022-07-29T06:45:06.208Z,44.20
2022-07-29T06:47:55.872Z,43.21
2022-07-29T06:50:42.150Z,43.90
2022-07-29T06:53:28.721Z,42.90
2022-07-29T06:56:14.976Z,42.95
2022-07-29T06:59:01.513Z,43.95
2022-07-29T07:01:47.918Z,42.85
2022-07-29T07:04:34.476Z,41.62
2022-07-29T07:07:20.392Z,43.62
2022-07-29T07:10:07.712Z,41.58
2022-07-29T07:12:53.614Z,41.97
2022-07-29T07:15:40.310Z,41.13
2022-07-29T07:18:26.556Z,41.75
2022-07-29T07:21:19.155Z,41.93
2022-07-29T07:24:05.951Z,41.35
2022-07-29T07:26:52.364Z,40.36
2022-07-29T07:29:42.509Z,42.71
2022-07-29T07:32:30.852Z,41.97
2022-07-29T07:35:17.269Z,40.10
2022-07-29T07:38:03.831Z,41.61
2022-07-29T07:40:49.864Z,40.11
2022-07-29T07:43:36.119Z,39.77
2022-07-29T07:46:22.544Z,40.77
2022-07-29T07:49:09.044Z,40.59
2022-07-29T07:51:55.177Z,38.80
2022-07-29T07:54:41.473Z,38.81
2022-07-29T07:57:28.026Z,38.79
2022-07-29T08:00:16.368Z,38.72
2022-07-29T08:03:06.232Z,38.33
2022-07-29T08:06:04.804Z,38.47
2022-07-29T08:08:51.974Z,37.63
2022-07-29T08:11:37.863Z,39.71
2022-07-29T08:14:38.869Z,38.66
2022-07-29T08:17:25.166Z,38.27
2022-07-29T08:20:11.862Z,37.33
2022-07-29T08:22:57.827Z,37.19
2022-07-29T08:25:43.988Z,36.28
2022-07-29T08:28:29.981Z,35.81
2022-07-29T08:31:16.611Z,36.06
2022-07-29T08:34:03.586Z,36.42
2022-07-29T08:36:50.388Z,35.05
2022-07-29T08:39:37.737Z,35.70
2022-07-29T08:42:23.892Z,35.08
2022-07-29T08:45:10.031Z,34.83
2022-07-29T08:47:56.501Z,35.37
2022-07-29T08:50:46.299Z,34.01
2022-07-29T08:53:33.112Z,34.97
2022-07-29T08:56:20.330Z,33.71
2022-07-29T08:59:07.022Z,33.66
2022-07-29T09:01:55.571Z,33.72
2022-07-29T09:04:42.526Z,33.03
2022-07-29T09:07:34.853Z,32.38
2022-07-29T09:10:21.135Z,31.64
2022-07-29T09:13:07.489Z,30.79
2022-07-29T09:15:53.916Z,30.19
2022-07-29T09:18:43.822Z,31.18
2022-07-29T09:21:59.847Z,31.06
2022-07-29T09:24:48.264Z,30.97
2022-07-29T09:27:35.317Z,30.58
2022-07-29T09:30:25.583Z,29.78
2022-07-29T09:33:18.658Z,29.45
2022-07-29T09:36:09.384Z,29.44
2022-07-29T09:39:04.618Z,31.52
2022-07-29T09:41:55.746Z,29.27
2022-07-29T09:44:51.659Z,28.77
2022-07-29T09:47:50.107Z,27.68
2022-07-29T09:50:37.549Z,28.54
2022-07-29T09:53:34.206Z,27.94
2022-07-29T09:56:20.597Z,26.63
2022-07-29T09:59:07.607Z,27.45
2022-07-29T10:01:54.493Z,27.70
2022-07-29T10:04:42.235Z,26.47
2022-07-29T10:07:44.471Z,26.73
2022-07-29T10:10:34.766Z,26.69
2022-07-29T10:13:20.812Z,25.62
2022-07-29T10:16:07.667Z,25.70
2022-07-29T10:18:53.757Z,25.19
2022-07-29T10:21:44.199Z,24.94
2022-07-29T10:24:31.737Z,24.59
2022-07-29T10:27:18.411Z,24.62
2022-07-29T10:30:05.658Z,23.97
2022-07-29T10:32:56.411Z,24.32
2022-07-29T10:35:48.655Z,23.80
2022-07-29T10:38:41.080Z,24.09
2022-07-29T10:41:50.380Z,22.91
2022-07-29T10:44:41.792Z,22.84
2022-07-29T10:47:28.391Z,24.78
2022-07-29T10:50:17.198Z,23.09
2022-07-29T10:53:04.935Z,23.11
2022-07-29T10:55:55.819Z,22.33
2022-07-29T10:58:42.556Z,22.91
2022-07-29T11:01:39.090Z,21.75
2022-07-29T11:04:44.394Z,22.26
2022-07-29T11:07:45.771Z,23.24
2022-07-29T11:10:32.611Z,21.95
2022-07-29T11:13:44.148Z,22.68
2022-07-29T11:17:00.755Z,21.57
2022-07-29T11:19:52.089Z,22.53
2022-07-29T11:22:43.154Z,23.92
2022-07-29T11:25:50.811Z,22.65
2022-07-29T11:28:43.588Z,24.24
2022-07-29T11:31:51.638Z,23.82
2022-07-29T11:34:41.637Z,23.21
2022-07-29T11:37:29.345Z,23.06
2022-07-29T11:40:18.502Z,22.16
2022-07-29T11:43:07.417Z,21.04
2022-07-29T11:45:54.550Z,21.31
2022-07-29T11:48:44.424Z,21.08
2022-07-29T11:51:32.999Z,21.87
2022-07-29T11:54:27.731Z,21.61
2022-07-29T11:57:14.070Z,22.39
2022-07-29T12:00:04.905Z,22.37
2022-07-29T12:02:57.845Z,22.16
2022-07-29T12:08:53.328Z,23.49
2022-07-29T12:11:39.911Z,23.78
2022-07-29T12:14:29.462Z,23.17
2022-07-29T12:17:32.823Z,22.07
2022-07-29T12:20:28.030Z,21.17
2022-07-29T12:23:17.363Z,21.11
2022-07-29T12:26:07.659Z,20.17
2022-07-29T12:28:56.811Z,19.73
2022-07-29T12:31:45.577Z,19.50
2022-07-29T12:34:31.928Z,19.99
2022-07-29T12:37:18.520Z,20.29
2022-07-29T12:40:08.463Z,19.38
2022-07-29T12:43:13.355Z,19.38
2022-07-29T12:46:13.652Z,20.55
2022-07-29T12:48:59.972Z,20.53
2022-07-29T12:51:45.924Z,19.02
2022-07-29T12:54:32.159Z,18.65
2022-07-29T12:57:19.980Z,18.82
2022-07-29T13:00:12.050Z,19.04
2022-07-29T13:03:00.428Z,19.03
2022-07-29T13:05:49.416Z,20.46
2022-07-29T13:08:35.942Z,18.98
2022-07-29T13:11:30.314Z,19.65
2022-07-29T13:14:34.128Z,18.91
2022-07-29T13:17:23.993Z,18.24
2022-07-29T13:20:13.675Z,19.31
2022-07-29T13:23:01.415Z,17.36
2022-07-29T13:25:47.392Z,17.97
2022-07-29T13:28:33.846Z,20.05
2022-07-29T13:31:20.415Z,19.34
2022-07-29T13:34:07.053Z,18.39
2022-07-29T13:36:53.526Z,18.61
2022-07-29T13:39:40.805Z,18.59
2022-07-29T13:42:27.302Z,19.14
2022-07-29T13:45:13.715Z,18.29
2022-07-29T13:48:00.127Z,17.93
2022-07-29T13:50:47.598Z,18.37
2022-07-29T13:53:33.782Z,17.19
2022-07-29T13:56:20.745Z,18.02
2022-07-29T13:59:06.430Z,17.75
2022-07-29T14:01:52.969Z,18.21
2022-07-29T14:04:39.835Z,17.29
2022-07-29T14:07:25.816Z,17.71
2022-07-29T14:10:12.669Z,18.89
2022-07-29T14:12:59.697Z,19.48
2022-07-29T14:15:45.993Z,19.47
2022-07-29T14:18:32.306Z,18.09
2022-07-29T14:21:18.710Z,19.04
2022-07-29T14:24:16.292Z,18.48
2022-07-29T14:27:08.963Z,20.00
2022-07-29T14:29:55.523Z,21.50
2022-07-29T14:32:41.898Z,20.16
2022-07-29T14:35:28.179Z,20.39
2022-07-29T14:38:14.546Z,20.79
2022-07-29T14:41:01.142Z,20.14
2022-07-29T14:43:48.264Z,18.93
2022-07-29T14:46:34.937Z,20.08
2022-07-29T14:49:21.116Z,19.85
2022-07-29T14:52:07.653Z,19.54
2022-07-29T14:54:53.902Z,20.13
2022-07-29T14:57:40.204Z,19.45
2022-07-29T15:00:26.940Z,19.42
2022-07-29T15:03:13.199Z,18.43
2022-07-29T15:06:10.705Z,19.12
2022-07-29T15:08:57.127Z,18.36
2022-07-29T15:11:43.882Z,19.34
2022-07-29T15:14:30.159Z,18.50
2022-07-29T15:17:16.497Z,18.33
2022-07-29T15:20:03.116Z,18.33
2022-07-29T15:22:49.685Z,17.84
2022-07-29T15:25:37.315Z,18.21
2022-07-29T15:28:23.915Z,18.02
2022-07-29T15:31:10.256Z,18.54
2022-07-29T15:33:59.417Z,19.41
2022-07-29T15:36:52.603Z,18.25
2022-07-29T15:39:39.711Z,19.09
2022-07-29T15:42:26.094Z,17.58
2022-07-29T15:45:12.564Z,17.53
2022-07-29T15:47:58.764Z,18.13
2022-07-29T15:50:47.178Z,19.12
2022-07-29T15:53:35.188Z,19.16
2022-07-29T15:56:21.845Z,19.19
2022-07-29T15:59:08.137Z,18.78
2022-07-29T16:01:54.826Z,18.27
2022-07-29T16:04:41.654Z,18.45
2022-07-29T16:07:31.263Z,19.96
2022-07-29T16:10:19.195Z,18.91
2022-07-29T16:13:04.935Z,18.87
2022-07-29T16:16:02.442Z,18.31
2022-07-29T16:18:49.173Z,19.01
2022-07-29T16:21:35.972Z,18.69
2022-07-29T16:24:22.208Z,18.26
2022-07-29T16:27:08.688Z,18.71
2022-07-29T16:29:55.705Z,18.96
2022-07-29T16:32:42.228Z,19.07
2022-07-29T16:35:39.584Z,18.78
2022-07-29T16:38:26.897Z,19.08
2022-07-29T16:41:13.667Z,19.16
2022-07-29T16:44:00.363Z,20.08
2022-07-29T16:46:46.536Z,20.00
2022-07-29T16:49:34.955Z,19.99
2022-07-29T16:52:21.230Z,21.22
2022-07-29T16:55:21.649Z,20.69
2022-07-29T16:58:07.732Z,20.96
2022-07-29T17:00:55.188Z,21.88
2022-07-29T17:04:01.297Z,21.92
2022-07-29T17:06:49.603Z,22.26
2022-07-29T17:09:35.730Z,22.40
2022-07-29T17:12:22.046Z,22.72
2022-07-29T17:15:10.612Z,22.83
2022-07-29T17:17:57.336Z,23.38
2022-07-29T17:20:43.507Z,21.75
2022-07-29T17:23:29.839Z,23.24
2022-07-29T17:26:16.707Z,23.25
2022-07-29T17:29:03.235Z,24.55
2022-07-29T17:31:49.042Z,24.77
2022-07-29T17:34:39.581Z,24.53
2022-07-29T17:37:25.772Z,24.21
2022-07-29T17:40:12.211Z,25.59
2022-07-29T17:49:18.569Z,23.80
2022-07-29T17:52:05.373Z,24.92
2022-07-29T17:54:51.765Z,25.90
2022-07-29T17:57:38.149Z,26.07
2022-07-29T18:00:24.954Z,25.74
2022-07-29T18:03:11.567Z,26.49
2022-07-29T18:05:57.865Z,27.46
2022-07-29T18:08:47.907Z,27.87
2022-07-29T18:11:34.251Z,28.52
2022-07-29T18:14:20.583Z,28.10
2022-07-29T18:17:06.910Z,28.82
2022-07-29T18:19:53.244Z,31.34
2022-07-29T18:22:39.652Z,30.46
2022-07-29T18:25:26.642Z,29.90
2022-07-29T18:28:12.721Z,31.00
2022-07-29T18:31:00.143Z,29.99
2022-07-29T18:33:46.405Z,30.70
2022-07-29T18:36:32.857Z,31.52
2022-07-29T18:39:21.150Z,31.43
2022-07-29T18:42:07.860Z,32.03
2022-07-29T18:44:54.855Z,31.83
2022-07-29T18:47:41.521Z,31.55
2022-07-29T18:50:33.454Z,32.50
2022-07-29T18:53:19.715Z,32.14
2022-07-29T18:56:06.149Z,31.83
2022-07-29T18:58:52.486Z,32.37
2022-07-29T19:01:38.927Z,32.29
2022-07-29T19:04:26.171Z,33.42
2022-07-29T19:07:12.181Z,33.43
2022-07-29T19:09:58.458Z,32.43
2022-07-29T19:12:44.551Z,39.56
2022-07-29T19:15:30.899Z,40.96
2022-07-29T19:18:18.163Z,40.82
2022-07-29T19:21:04.624Z,38.89
2022-07-29T19:24:01.790Z,36.62
2022-07-29T19:26:54.412Z,36.24
2022-07-29T19:29:40.778Z,34.86
2022-07-29T19:32:27.192Z,35.50
2022-07-29T19:35:28.290Z,35.50
2022-07-29T19:38:15.232Z,35.57
2022-07-29T19:41:01.492Z,36.72
2022-07-29T19:43:50.887Z,34.80
2022-07-29T19:46:38.708Z,34.85
2022-07-29T19:49:25.176Z,34.42
2022-07-29T19:52:11.245Z,34.48
2022-07-29T19:54:58.881Z,34.82
2022-07-29T19:57:46.295Z,36.06
2022-07-29T20:00:32.857Z,37.14
2022-07-29T20:03:19.155Z,37.10
2022-07-29T20:06:06.012Z,36.07
2022-07-29T20:08:56.774Z,36.48
2022-07-29T20:11:44.769Z,35.75
2022-07-29T20:14:31.259Z,36.16
2022-07-29T20:17:22.462Z,37.85
2022-07-29T20:20:09.020Z,37.50
2022-07-29T20:22:55.408Z,36.69
2022-07-29T20:25:42.217Z,36.87
2022-07-29T20:28:29.189Z,36.20
2022-07-29T20:31:16.737Z,37.59
2022-07-29T20:34:03.498Z,40.19
2022-07-29T20:36:50.698Z,37.27
2022-07-29T20:39:37.444Z,39.21
2022-07-29T20:42:24.038Z,39.25
2022-07-29T20:45:10.514Z,38.78
2022-07-29T20:47:57.153Z,37.60
2022-07-29T20:50:44.980Z,37.59
2022-07-29T20:53:31.458Z,40.13
2022-07-29T20:56:17.738Z,40.80
2022-07-29T20:59:04.473Z,41.32
2022-07-29T21:01:50.645Z,40.30
2022-07-29T21:04:37.198Z,39.72
2022-07-29T21:07:23.333Z,39.74
2022-07-29T21:10:09.831Z,40.40
2022-07-29T21:12:56.184Z,40.21
2022-07-29T21:15:45.955Z,41.93
2022-07-29T21:18:34.338Z,40.73
2022-07-29T21:21:20.959Z,40.89
2022-07-29T21:24:08.129Z,39.91
2022-07-29T21:27:21.497Z,40.39
2022-07-29T21:30:08.850Z,39.66
2022-07-29T21:32:55.564Z,41.41
2022-07-29T21:36:06.885Z,42.33
2022-07-29T21:38:48.830Z,41.27
2022-07-29T21:41:34.764Z,40.82
2022-07-29T21:44:21.898Z,40.54
2022-07-29T21:47:09.297Z,40.97
2022-07-29T21:49:55.781Z,41.24
2022-07-29T21:52:42.080Z,41.03
2022-07-29T21:55:28.976Z,42.51
2022-07-29T21:58:18.106Z,43.86
2022-07-29T22:01:04.878Z,43.80
2022-07-29T22:03:51.518Z,42.08
2022-07-29T22:06:37.732Z,42.47
2022-07-29T22:09:24.686Z,43.23
2022-07-29T22:12:11.141Z,43.66
2022-07-29T22:14:57.939Z,42.41
2022-07-29T22:17:43.934Z,43.09
2022-07-29T22:20:30.256Z,42.87
2022-07-29T22:23:16.799Z,45.27
2022-07-29T22:26:03.940Z,45.75
2022-07-29T22:28:49.969Z,45.51
2022-07-29T22:31:36.278Z,48.84
2022-07-29T22:34:22.675Z,47.62
2022-07-29T22:37:09.029Z,45.74
2022-07-29T22:39:55.271Z,46.41
2022-07-29T22:42:41.550Z,45.88
2022-07-29T22:45:28.065Z,45.87
2022-07-29T22:48:16.858Z,45.89
2022-07-29T22:51:03.187Z,48.04
2022-07-29T22:53:49.641Z,46.93
2022-07-29T22:56:36.777Z,47.42
2022-07-29T22:59:23.478Z,48.51
2022-07-29T23:02:09.605Z,48.80
2022-07-29T23:04:55.819Z,48.42
2022-07-29T23:07:42.096Z,50.89
2022-07-29T23:10:28.633Z,49.70
2022-07-29T23:13:14.940Z,50.24
2022-07-29T23:16:01.672Z,49.73
2022-07-29T23:18:48.245Z,51.05
2022-07-29T23:21:34.613Z,49.85
2022-07-29T23:24:21.084Z,52.88
2022-07-29T23:27:07.430Z,50.80
2022-07-29T23:29:53.817Z,50.92
2022-07-29T23:32:40.158Z,51.75
2022-07-29T23:35:26.962Z,52.04
2022-07-29T23:38:13.622Z,52.70
2022-07-29T23:41:01.663Z,52.59
2022-07-29T23:43:50.994Z,54.10
2022-07-29T23:46:37.397Z,53.19
2022-07-29T23:49:23.619Z,52.92
2022-07-29T23:52:09.957Z,53.78
2022-07-29T23:54:56.320Z,53.64
2022-07-29T23:58:03.075Z,53.89
